Time;durP1;ratioP1;P1;durP2;ratioP2;P2;SDS_P1;SDS_P2;PMS_P1;PMS_P2;Temp;Humidity;BMP_temperature;BMP_pressure;BME280_temperature;BME280_humidity;BME280_pressure;Samples;Min_cycle;Max_cycle;Signal;HPM_P1;HPM_P2
2023/07/20 00:00:07;;;;;;;1.98;1.20;;;17.00;99.90;;;;;;6214517;23;20042;-68
2023/07/20 00:02:33;;;;;;;1.95;1.00;;;17.00;99.90;;;;;;6241191;23;20559;-68
2023/07/20 00:04:58;;;;;;;3.63;1.60;;;17.00;99.90;;;;;;6241394;23;20024;-68
2023/07/20 00:07:25;;;;;;;1.13;1.10;;;17.00;99.90;;;;;;6214011;23;20644;-68
2023/07/20 00:09:50;;;;;;;1.25;1.15;;;16.90;99.90;;;;;;6242590;23;20008;-68
2023/07/20 00:12:16;;;;;;;2.00;1.30;;;17.00;99.90;;;;;;6216026;23;20563;-68
2023/07/20 00:14:42;;;;;;;4.90;1.33;;;17.00;99.90;;;;;;6242705;23;20023;-68
2023/07/20 00:17:08;;;;;;;1.60;1.50;;;16.90;99.90;;;;;;6242968;23;20016;-68
2023/07/20 00:19:34;;;;;;;1.85;1.60;;;17.00;99.90;;;;;;6216075;23;20093;-68
2023/07/20 00:22:00;;;;;;;1.50;1.40;;;16.90;99.90;;;;;;6242795;23;20016;-68
2023/07/20 00:24:26;;;;;;;1.85;1.55;;;16.90;99.90;;;;;;6242159;23;20073;-68
2023/07/20 00:26:52;;;;;;;1.42;1.33;;;16.90;99.90;;;;;;6242579;23;20027;-68
2023/07/20 00:29:18;;;;;;;2.40;1.70;;;16.90;99.90;;;;;;6242011;23;20471;-68
2023/07/20 00:31:44;;;;;;;4.85;1.92;;;16.90;99.90;;;;;;6242872;23;20031;-68
2023/07/20 00:34:09;;;;;;;1.48;1.38;;;16.90;99.90;;;;;;6242892;23;20082;-68
2023/07/20 00:36:35;;;;;;;3.15;1.83;;;16.90;99.90;;;;;;6242858;23;20023;-68
2023/07/20 00:39:02;;;;;;;1.63;1.52;;;16.90;99.90;;;;;;6215585;23;20573;-68
2023/07/20 00:41:29;;;;;;;4.10;1.60;;;16.90;99.90;;;;;;6242600;23;20325;-68
2023/07/20 00:43:56;;;;;;;1.63;1.52;;;16.90;99.90;;;;;;6215523;23;20024;-68
2023/07/20 00:46:24;;;;;;;1.63;1.50;;;16.80;99.90;;;;;;6242879;23;20098;-68
2023/07/20 00:48:50;;;;;;;2.38;1.50;;;16.80;99.90;;;;;;6243037;23;20026;-68
2023/07/20 00:51:16;;;;;;;3.97;1.73;;;16.80;99.90;;;;;;6242791;23;20039;-68
2023/07/20 00:53:41;;;;;;;2.08;1.63;;;16.80;99.90;;;;;;6242355;23;20012;-68
2023/07/20 00:56:08;;;;;;;3.45;1.98;;;16.80;99.90;;;;;;6243191;23;20028;-68
2023/07/20 00:58:35;;;;;;;1.88;1.75;;;16.80;99.90;;;;;;6242871;23;20340;-68
2023/07/20 01:01:01;;;;;;;2.65;1.80;;;16.70;99.90;;;;;;6242717;23;20020;-68
2023/07/20 01:03:26;;;;;;;4.22;1.85;;;16.70;99.90;;;;;;6242615;23;20456;-68
2023/07/20 01:05:52;;;;;;;2.13;1.50;;;16.60;99.90;;;;;;6242526;23;20013;-68
2023/07/20 01:08:26;;;;;;;2.00;1.80;;;16.70;99.90;;;;;;6242132;23;20016;-68
2023/07/20 01:11:03;;;;;;;1.90;1.80;;;16.70;99.90;;;;;;6242598;23;20020;-68
2023/07/20 01:13:29;;;;;;;2.67;1.65;;;16.70;99.90;;;;;;6242305;23;20318;-68
2023/07/20 01:16:00;;;;;;;1.98;1.50;;;16.70;99.90;;;;;;6242192;23;20394;-68
2023/07/20 01:18:26;;;;;;;1.60;1.50;;;16.70;99.90;;;;;;6242321;23;20023;-69
2023/07/20 01:20:59;;;;;;;1.95;1.63;;;16.70;99.90;;;;;;6241280;23;20070;-68
2023/07/20 01:23:42;;;;;;;2.22;1.63;;;16.70;99.90;;;;;;6241866;23;20016;-68
2023/07/20 01:26:31;;;;;;;1.63;1.52;;;16.70;99.90;;;;;;6242157;23;20012;-68
2023/07/20 01:29:21;;;;;;;1.95;1.70;;;16.70;99.90;;;;;;6242496;23;20024;-68
2023/07/20 01:31:51;;;;;;;1.88;1.77;;;16.70;99.90;;;;;;6215096;23;20425;-68
2023/07/20 01:34:18;;;;;;;2.33;1.70;;;16.70;99.90;;;;;;6242754;23;20031;-69
2023/07/20 01:36:45;;;;;;;3.63;2.40;;;16.70;99.90;;;;;;6215042;23;20102;-68
2023/07/20 01:39:11;;;;;;;2.55;2.20;;;16.60;99.90;;;;;;6214788;23;20464;-68
2023/07/20 01:41:38;;;;;;;2.10;1.90;;;16.70;99.90;;;;;;6241767;23;20028;-68
2023/07/20 01:44:04;;;;;;;4.38;2.08;;;16.60;99.90;;;;;;6242128;23;20025;-68
2023/07/20 01:46:30;;;;;;;2.78;2.25;;;16.60;99.90;;;;;;6229663;23;20023;-68
2023/07/20 01:48:55;;;;;;;2.00;1.90;;;16.60;99.90;;;;;;6241840;23;20020;-68
2023/07/20 01:51:21;;;;;;;4.53;2.75;;;16.60;99.90;;;;;;6214641;23;20020;-68
2023/07/20 01:53:47;;;;;;;4.07;2.30;;;16.60;99.90;;;;;;6214772;23;20381;-68
2023/07/20 01:56:13;;;;;;;2.22;2.03;;;16.50;99.90;;;;;;6241374;23;20024;-68
2023/07/20 01:58:39;;;;;;;2.85;2.30;;;16.50;99.90;;;;;;6242326;23;20428;-68
2023/07/20 02:01:04;;;;;;;2.53;2.20;;;16.50;99.90;;;;;;6242121;23;20106;-68
2023/07/20 02:03:30;;;;;;;2.33;2.03;;;16.40;99.90;;;;;;6241550;23;20020;-68
2023/07/20 02:05:56;;;;;;;2.33;2.13;;;16.40;99.90;;;;;;6241731;23;20019;-68
2023/07/20 02:08:23;;;;;;;2.65;2.30;;;16.30;99.90;;;;;;6241856;23;20020;-68
2023/07/20 02:10:49;;;;;;;2.75;2.45;;;16.30;99.90;;;;;;6241861;23;20012;-68
2023/07/20 02:13:15;;;;;;;2.25;2.05;;;16.30;99.90;;;;;;6241944;23;20008;-68
2023/07/20 02:15:42;;;;;;;2.60;2.28;;;16.30;99.90;;;;;;6215043;23;20519;-68
2023/07/20 02:18:08;;;;;;;3.60;2.58;;;16.30;99.90;;;;;;6241454;23;20039;-68
2023/07/20 02:20:34;;;;;;;4.80;2.40;;;16.20;99.90;;;;;;6214369;23;20023;-68
2023/07/20 02:23:00;;;;;;;3.92;2.60;;;16.20;99.90;;;;;;6241569;23;20452;-68
2023/07/20 02:25:25;;;;;;;2.60;2.40;;;16.20;99.90;;;;;;6214015;23;20020;-68
2023/07/20 02:27:52;;;;;;;3.17;2.40;;;16.20;99.90;;;;;;6241712;23;20020;-68
2023/07/20 02:30:18;;;;;;;3.70;3.33;;;16.20;99.90;;;;;;6241635;23;20348;-68
2023/07/20 02:32:48;;;;;;;4.65;2.78;;;16.10;99.90;;;;;;6214362;23;20024;-68
2023/07/20 02:35:15;;;;;;;3.38;3.08;;;16.00;99.90;;;;;;6213933;23;20733;-68
2023/07/20 02:37:41;;;;;;;3.67;2.58;;;16.00;99.90;;;;;;6241733;23;20351;-67
2023/07/20 02:40:07;;;;;;;3.95;3.55;;;15.90;99.90;;;;;;6241599;23;20012;-68
2023/07/20 02:42:33;;;;;;;5.75;3.55;;;16.00;99.90;;;;;;6241329;23;20020;-67
2023/07/20 02:44:59;;;;;;;4.20;2.90;;;15.90;99.90;;;;;;6241583;23;20074;-68
2023/07/20 02:47:25;;;;;;;3.60;3.28;;;15.90;99.90;;;;;;6241549;23;20032;-68
2023/07/20 02:49:50;;;;;;;4.93;3.30;;;15.80;99.90;;;;;;6241057;23;20012;-68
2023/07/20 02:52:16;;;;;;;3.50;3.20;;;15.80;99.90;;;;;;6241240;23;20016;-67
2023/07/20 02:54:42;;;;;;;3.97;3.50;;;15.90;99.90;;;;;;6213615;23;20091;-67
2023/07/20 02:57:08;;;;;;;3.60;3.17;;;15.80;99.90;;;;;;6241522;23;20124;-67
2023/07/20 02:59:33;;;;;;;4.43;3.63;;;15.80;99.90;;;;;;6241067;23;20024;-67
2023/07/20 03:01:59;;;;;;;4.45;3.58;;;15.80;99.90;;;;;;6241516;23;20095;-67
2023/07/20 03:04:27;;;;;;;4.70;3.30;;;15.70;99.90;;;;;;6240759;23;20028;-67
2023/07/20 03:06:53;;;;;;;4.05;2.97;;;15.70;99.90;;;;;;6241208;23;20016;-67
2023/07/20 03:09:19;;;;;;;3.40;3.10;;;15.70;99.90;;;;;;6241116;23;20456;-67
2023/07/20 03:11:45;;;;;;;3.83;3.47;;;15.60;99.90;;;;;;6241404;23;20017;-67
2023/07/20 03:14:11;;;;;;;3.80;3.50;;;15.60;99.90;;;;;;6214195;23;20023;-68
2023/07/20 03:16:37;;;;;;;5.25;3.00;;;15.60;99.90;;;;;;6241290;23;20028;-67
2023/07/20 03:19:03;;;;;;;3.65;3.22;;;15.60;99.90;;;;;;6240914;23;20062;-67
2023/07/20 03:21:29;;;;;;;3.85;3.42;;;15.60;99.90;;;;;;6241406;23;20087;-67
2023/07/20 03:23:55;;;;;;;3.63;3.28;;;15.50;99.90;;;;;;6241462;23;20027;-68
2023/07/20 03:26:21;;;;;;;4.72;3.60;;;15.50;99.90;;;;;;6240894;23;20455;-67
2023/07/20 03:28:47;;;;;;;6.13;3.35;;;15.50;99.90;;;;;;6241236;23;20024;-67
2023/07/20 03:31:14;;;;;;;3.72;3.40;;;15.40;99.90;;;;;;6241393;23;20016;-68
2023/07/20 03:33:40;;;;;;;3.92;3.50;;;15.40;99.90;;;;;;6240892;23;20016;-68
2023/07/20 03:36:06;;;;;;;4.72;3.45;;;15.40;99.90;;;;;;6214176;23;20024;-67
2023/07/20 03:38:32;;;;;;;3.88;3.30;;;15.40;99.90;;;;;;6240806;23;20070;-67
2023/07/20 03:41:00;;;;;;;4.13;3.60;;;15.40;99.90;;;;;;6241173;23;20074;-67
2023/07/20 03:43:27;;;;;;;3.38;3.08;;;15.40;99.90;;;;;;6241445;23;20020;-67
2023/07/20 03:45:53;;;;;;;5.35;3.28;;;15.40;99.90;;;;;;6243645;23;20039;-68
2023/07/20 03:48:21;;;;;;;3.63;3.00;;;15.30;99.90;;;;;;6216402;23;20440;-67
2023/07/20 03:50:48;;;;;;;3.88;3.25;;;15.30;99.90;;;;;;6243766;23;20043;-67
2023/07/20 03:53:15;;;;;;;4.15;3.45;;;15.20;99.90;;;;;;6243776;23;20016;-67
2023/07/20 03:55:51;;;;;;;3.60;3.10;;;15.30;99.90;;;;;;6243471;23;20348;-68
2023/07/20 03:58:17;;;;;;;3.38;2.97;;;15.20;99.90;;;;;;6243468;23;20023;-68
2023/07/20 04:00:47;;;;;;;5.85;3.45;;;15.20;99.90;;;;;;6243346;23;20016;-68
2023/07/20 04:03:14;;;;;;;3.55;3.15;;;15.20;99.90;;;;;;6243219;23;20332;-68
2023/07/20 04:05:40;;;;;;;4.30;3.08;;;15.20;99.90;;;;;;6243367;23;20023;-67
2023/07/20 04:08:05;;;;;;;4.15;3.05;;;15.20;99.90;;;;;;6243421;23;20012;-67
2023/07/20 04:10:31;;;;;;;3.65;3.33;;;15.20;99.90;;;;;;6243396;23;20070;-67
2023/07/20 04:12:57;;;;;;;4.05;3.30;;;15.20;99.90;;;;;;6216208;23;20420;-67
2023/07/20 04:15:22;;;;;;;4.75;3.00;;;15.30;99.90;;;;;;6243217;23;20024;-67
2023/07/20 04:17:48;;;;;;;4.15;3.20;;;15.40;99.90;;;;;;6215786;23;20384;-67
2023/07/20 04:20:14;;;;;;;3.75;3.35;;;15.40;99.90;;;;;;6243017;23;20455;-68
2023/07/20 04:22:40;;;;;;;4.13;3.30;;;15.50;99.90;;;;;;6243078;23;20028;-67
2023/07/20 04:25:06;;;;;;;3.55;3.13;;;15.50;99.90;;;;;;6215813;23;20059;-67
2023/07/20 04:27:32;;;;;;;3.70;3.00;;;15.50;99.90;;;;;;6242434;23;20346;-67
2023/07/20 04:30:01;;;;;;;3.63;2.88;;;15.50;99.90;;;;;;6243299;23;20092;-68
2023/07/20 04:32:26;;;;;;;5.45;2.85;;;15.60;99.90;;;;;;6242351;23;20300;-68
2023/07/20 04:34:52;;;;;;;3.10;2.80;;;15.60;99.90;;;;;;6242856;23;20080;-67
2023/07/20 04:37:18;;;;;;;3.47;3.08;;;15.60;99.90;;;;;;6243183;23;20020;-68
2023/07/20 04:39:44;;;;;;;3.25;2.95;;;15.60;99.90;;;;;;6242893;23;20118;-67
2023/07/20 04:42:09;;;;;;;4.68;2.95;;;15.60;99.90;;;;;;6243137;23;20030;-67
2023/07/20 04:44:35;;;;;;;3.13;2.83;;;15.60;99.90;;;;;;6243011;23;20445;-67
2023/07/20 04:47:01;;;;;;;3.03;2.72;;;15.70;99.90;;;;;;6215507;23;20028;-67
2023/07/20 04:49:26;;;;;;;3.30;3.00;;;15.80;99.90;;;;;;6215840;23;20024;-67
2023/07/20 04:51:52;;;;;;;7.82;3.10;;;15.90;99.90;;;;;;6243047;23;20498;-67
2023/07/20 04:54:18;;;;;;;3.25;2.90;;;16.00;99.90;;;;;;6215518;23;20336;-68
2023/07/20 04:56:44;;;;;;;6.88;2.92;;;16.00;99.90;;;;;;6242906;23;20113;-67
2023/07/20 04:59:10;;;;;;;5.47;2.75;;;16.10;99.90;;;;;;6243051;23;20024;-68
2023/07/20 05:01:36;;;;;;;3.38;2.67;;;16.30;99.90;;;;;;6215556;23;20095;-68
2023/07/20 05:04:02;;;;;;;2.72;2.53;;;16.30;99.90;;;;;;6242505;23;20016;-67
2023/07/20 05:06:28;;;;;;;5.22;2.50;;;16.30;99.90;;;;;;6242833;23;20023;-67
2023/07/20 05:08:53;;;;;;;6.13;2.92;;;16.40;99.90;;;;;;6242780;23;20016;-67
2023/07/20 05:11:19;;;;;;;3.33;2.72;;;16.50;99.90;;;;;;6242875;23;20020;-67
2023/07/20 05:13:45;;;;;;;4.57;2.78;;;16.50;99.90;;;;;;6215559;23;20027;-68
2023/07/20 05:16:11;;;;;;;6.10;2.83;;;16.60;99.90;;;;;;6216193;23;20091;-68
2023/07/20 05:18:37;;;;;;;4.05;2.45;;;16.70;99.90;;;;;;6242674;23;20038;-69
2023/07/20 05:21:03;;;;;;;2.90;2.70;;;16.80;99.90;;;;;;6242186;23;20016;-69
2023/07/20 05:23:28;;;;;;;3.30;2.20;;;16.80;99.90;;;;;;6215473;23;20321;-67
2023/07/20 05:25:56;;;;;;;6.72;2.60;;;16.90;99.90;;;;;;6242199;23;20020;-67
2023/07/20 05:28:22;;;;;;;4.90;2.08;;;17.00;99.90;;;;;;6241434;23;20464;-68
2023/07/20 05:30:48;;;;;;;3.00;2.30;;;17.00;99.90;;;;;;6242602;23;20024;-67
2023/07/20 05:33:13;;;;;;;4.70;2.28;;;17.20;99.90;;;;;;6243124;23;20012;-67
2023/07/20 05:35:39;;;;;;;5.78;2.22;;;17.10;99.90;;;;;;6243058;23;20070;-68
2023/07/20 05:38:06;;;;;;;3.05;2.40;;;17.30;99.90;;;;;;6242347;23;20020;-68
2023/07/20 05:40:32;;;;;;;2.05;1.85;;;17.40;99.90;;;;;;6243116;23;20348;-68
2023/07/20 05:42:58;;;;;;;3.78;1.83;;;17.40;99.90;;;;;;6241894;23;20012;-68
2023/07/20 05:45:24;;;;;;;2.20;1.70;;;17.60;99.90;;;;;;6242079;23;20082;-68
2023/07/20 05:47:50;;;;;;;2.20;1.83;;;17.70;99.90;;;;;;6242245;23;20016;-69
2023/07/20 05:50:16;;;;;;;2.10;1.90;;;17.70;99.90;;;;;;6242208;23;20093;-68
2023/07/20 05:52:41;;;;;;;3.58;1.95;;;17.70;99.90;;;;;;6215238;23;20107;-70
2023/07/20 05:55:08;;;;;;;2.13;1.92;;;17.90;99.90;;;;;;6215129;23;20032;-70
2023/07/20 05:57:35;;;;;;;3.58;1.88;;;17.80;99.90;;;;;;6214885;23;20087;-70
2023/07/20 06:00:01;;;;;;;3.33;1.70;;;18.00;99.90;;;;;;6241459;23;20027;-70
2023/07/20 06:02:26;;;;;;;4.00;1.70;;;18.00;99.90;;;;;;6241669;23;20876;-70
2023/07/20 06:04:52;;;;;;;4.95;2.00;;;18.00;99.90;;;;;;6241898;23;20020;-70
2023/07/20 06:07:18;;;;;;;1.67;1.42;;;18.00;99.90;;;;;;6241301;23;20035;-70
2023/07/20 06:09:43;;;;;;;2.47;1.40;;;18.10;99.90;;;;;;6241611;23;20375;-70
2023/07/20 06:12:09;;;;;;;2.30;1.50;;;18.20;99.90;;;;;;6241935;23;20016;-70
2023/07/20 06:14:35;;;;;;;2.17;1.48;;;18.30;99.90;;;;;;6214170;23;20058;-70
2023/07/20 06:17:01;;;;;;;2.58;1.75;;;18.20;99.90;;;;;;6241423;23;20020;-71
2023/07/20 06:19:27;;;;;;;5.05;1.48;;;18.20;99.90;;;;;;6241667;23;20035;-69
2023/07/20 06:21:52;;;;;;;1.77;1.30;;;18.50;99.90;;;;;;6241855;23;20020;-69
2023/07/20 06:24:18;;;;;;;1.30;1.15;;;18.50;99.90;;;;;;6241561;23;20016;-69
2023/07/20 06:26:44;;;;;;;2.80;1.40;;;18.60;99.90;;;;;;6241536;23;20102;-69
2023/07/20 06:29:10;;;;;;;3.65;1.23;;;18.70;99.90;;;;;;6214104;23;20089;-69
2023/07/20 06:31:36;;;;;;;1.30;1.20;;;18.70;99.90;;;;;;6241278;23;20012;-69
2023/07/20 06:34:03;;;;;;;3.15;1.58;;;18.70;99.90;;;;;;6241739;23;20022;-69
2023/07/20 06:36:29;;;;;;;2.60;1.20;;;18.80;99.90;;;;;;6241624;23;20369;-69
2023/07/20 06:38:57;;;;;;;2.22;0.93;;;18.90;99.90;;;;;;6241303;23;20024;-69
2023/07/20 06:41:23;;;;;;;3.40;1.27;;;19.00;99.90;;;;;;6240914;23;20455;-69
2023/07/20 06:43:49;;;;;;;2.33;1.02;;;19.00;99.90;;;;;;6214576;23;20020;-69
2023/07/20 06:46:15;;;;;;;2.80;0.90;;;19.10;99.90;;;;;;6241333;23;20019;-69
2023/07/20 06:48:41;;;;;;;3.92;1.08;;;19.20;99.90;;;;;;6214277;23;20574;-69
2023/07/20 06:51:06;;;;;;;1.67;1.00;;;19.30;99.90;;;;;;6241358;23;20024;-70
2023/07/20 06:53:32;;;;;;;2.40;1.10;;;19.30;99.90;;;;;;6214221;23;20031;-70
2023/07/20 06:55:58;;;;;;;2.53;1.00;;;19.30;99.90;;;;;;6240509;23;20031;-71
2023/07/20 06:58:24;;;;;;;1.67;0.80;;;19.30;99.90;;;;;;6241218;23;20024;-70
2023/07/20 07:00:50;;;;;;;1.15;0.70;;;19.30;99.90;;;;;;6214226;23;20020;-70
2023/07/20 07:03:16;;;;;;;2.83;0.80;;;19.40;99.90;;;;;;6241179;23;20321;-71
2023/07/20 07:05:42;;;;;;;2.72;0.90;;;19.50;99.90;;;;;;6241168;23;20383;-70
2023/07/20 07:08:08;;;;;;;2.08;0.80;;;19.60;99.90;;;;;;6241218;23;20020;-70
2023/07/20 07:10:36;;;;;;;1.58;0.70;;;19.60;99.90;;;;;;6240993;23;20078;-70
2023/07/20 07:13:02;;;;;;;1.63;0.65;;;19.70;99.90;;;;;;6240787;23;20020;-70
2023/07/20 07:15:28;;;;;;;3.22;0.80;;;19.60;99.90;;;;;;6241079;23;20115;-70
2023/07/20 07:17:54;;;;;;;4.50;0.75;;;19.60;99.90;;;;;;6213914;23;20055;-71
2023/07/20 07:20:20;;;;;;;3.90;0.90;;;19.40;99.90;;;;;;6241065;23;20016;-70
2023/07/20 07:22:46;;;;;;;1.60;0.75;;;19.40;99.90;;;;;;6214136;23;20074;-70
2023/07/20 07:25:12;;;;;;;2.92;0.60;;;19.30;99.90;;;;;;6240389;23;20028;-70
2023/07/20 07:27:38;;;;;;;1.25;0.98;;;19.10;99.90;;;;;;6240800;23;20012;-70
2023/07/20 07:30:05;;;;;;;2.58;1.10;;;19.00;99.90;;;;;;6241269;23;20400;-70
2023/07/20 07:32:31;;;;;;;4.10;0.90;;;19.00;99.90;;;;;;6241282;23;20071;-72
2023/07/20 07:34:58;;;;;;;2.75;0.77;;;19.00;99.90;;;;;;6241248;23;20020;-70
2023/07/20 07:37:24;;;;;;;1.88;0.80;;;18.90;99.90;;;;;;6240806;23;20031;-70
2023/07/20 07:39:50;;;;;;;5.60;2.25;;;18.90;99.90;;;;;;6240874;23;20016;-70
2023/07/20 07:42:15;;;;;;;0.70;0.70;;;18.90;99.90;;;;;;6214018;23;20082;-70
2023/07/20 07:44:41;;;;;;;1.70;0.85;;;18.80;99.90;;;;;;6239999;23;20028;-70
2023/07/20 07:47:07;;;;;;;6.43;1.05;;;18.80;99.90;;;;;;6241217;23;20024;-70
2023/07/20 07:49:33;;;;;;;2.15;0.70;;;18.80;99.90;;;;;;6214458;23;20390;-70
2023/07/20 07:52:02;;;;;;;1.55;0.70;;;18.60;99.90;;;;;;6240751;23;20027;-70
2023/07/20 07:54:28;;;;;;;5.05;0.90;;;18.60;99.90;;;;;;6213588;23;20020;-70
2023/07/20 07:56:54;;;;;;;1.48;0.75;;;18.60;99.90;;;;;;6241569;23;20020;-71
2023/07/20 07:59:20;;;;;;;1.90;0.80;;;18.60;99.90;;;;;;6241427;23;20024;-70
2023/07/20 08:01:45;;;;;;;3.28;0.60;;;18.60;99.90;;;;;;6241448;23;20031;-70
2023/07/20 08:04:11;;;;;;;2.83;1.00;;;18.50;99.90;;;;;;6241375;23;20024;-71
2023/07/20 08:06:37;;;;;;;1.65;0.95;;;18.50;99.90;;;;;;6241180;23;20047;-70
2023/07/20 08:09:02;;;;;;;8.73;1.10;;;18.50;99.90;;;;;;6213528;23;20099;-70
2023/07/20 08:11:30;;;;;;;3.95;1.02;;;18.90;99.90;;;;;;6240761;23;20024;-70
2023/07/20 08:13:56;;;;;;;3.22;0.98;;;19.10;99.90;;;;;;6240960;23;20073;-71
2023/07/20 08:16:22;;;;;;;3.30;0.80;;;19.30;99.90;;;;;;6240607;23;20475;-70
2023/07/20 08:18:48;;;;;;;1.10;0.80;;;19.50;99.90;;;;;;6213847;23;20031;-70
2023/07/20 08:21:13;;;;;;;0.90;0.60;;;19.40;99.90;;;;;;6240564;23;20686;-71
2023/07/20 08:23:39;;;;;;;3.47;0.90;;;19.50;99.90;;;;;;6240492;23;20023;-71
2023/07/20 08:26:05;;;;;;;1.77;0.70;;;19.50;99.90;;;;;;6213543;23;20417;-70
2023/07/20 08:28:31;;;;;;;2.00;0.70;;;19.80;99.90;;;;;;6240866;23;20016;-70
2023/07/20 08:30:57;;;;;;;3.90;1.02;;;19.90;99.90;;;;;;6242409;23;20317;-71
2023/07/20 08:33:23;;;;;;;1.95;0.70;;;20.00;99.90;;;;;;6242559;23;20024;-70
2023/07/20 08:35:49;;;;;;;3.58;0.90;;;20.00;99.90;;;;;;6215666;23;20085;-71
2023/07/20 08:38:15;;;;;;;1.55;0.88;;;20.20;99.90;;;;;;6213845;23;20103;-73
2023/07/20 08:40:43;;;;;;;2.17;0.80;;;20.10;99.90;;;;;;6241986;23;20024;-72
2023/07/20 08:43:11;;;;;;;5.55;0.85;;;20.20;99.90;;;;;;6242095;23;20097;-71
2023/07/20 08:45:39;;;;;;;1.98;0.82;;;19.70;99.90;;;;;;6214368;23;20027;-73
2023/07/20 08:48:07;;;;;;;2.63;0.90;;;19.80;99.90;;;;;;6214959;23;20101;-74
2023/07/20 08:50:33;;;;;;;2.15;0.90;;;19.90;99.90;;;;;;6215117;23;20023;-74
2023/07/20 08:53:00;;;;;;;1.80;1.02;;;20.00;99.90;;;;;;6242296;23;20170;-72
2023/07/20 08:55:27;;;;;;;2.45;0.90;;;20.00;99.90;;;;;;6242334;23;20119;-72
2023/07/20 08:58:00;;;;;;;0.68;0.60;;;20.10;99.90;;;;;;6241986;23;20020;-72
2023/07/20 09:00:29;;;;;;;1.55;0.80;;;20.30;99.90;;;;;;6215249;23;20495;-72
2023/07/20 09:02:55;;;;;;;1.20;0.80;;;20.40;99.90;;;;;;6242337;23;20028;-72
2023/07/20 09:05:24;;;;;;;4.90;1.08;;;20.40;99.90;;;;;;6215072;23;20034;-71
2023/07/20 09:07:51;;;;;;;4.13;0.73;;;20.60;99.90;;;;;;6242279;23;20109;-72
2023/07/20 09:10:16;;;;;;;4.15;0.88;;;20.80;99.90;;;;;;6215249;23;20024;-71
2023/07/20 09:12:43;;;;;;;5.32;1.20;;;20.70;99.90;;;;;;6242433;23;20062;-71
2023/07/20 09:15:10;;;;;;;2.63;0.77;;;20.90;99.90;;;;;;6242329;23;20030;-71
2023/07/20 09:17:37;;;;;;;3.88;1.00;;;20.80;99.90;;;;;;6215199;23;20514;-71
2023/07/20 09:20:10;;;;;;;6.05;0.95;;;20.60;99.90;;;;;;6215580;23;20008;-71
2023/07/20 09:22:40;;;;;;;2.42;0.75;;;20.50;99.90;;;;;;6242403;23;20087;-72
2023/07/20 09:25:17;;;;;;;1.55;0.80;;;20.30;99.90;;;;;;6242201;23;20016;-72
2023/07/20 09:27:44;;;;;;;1.08;0.60;;;20.60;99.90;;;;;;6215264;23;20020;-72
2023/07/20 09:30:13;;;;;;;0.95;0.70;;;20.60;99.90;;;;;;6242364;23;20329;-71
2023/07/20 09:32:44;;;;;;;1.98;0.70;;;20.70;99.90;;;;;;6215199;23;20388;-71
2023/07/20 09:35:19;;;;;;;0.73;0.73;;;20.70;99.90;;;;;;6242273;23;20027;-72
2023/07/20 09:38:00;;;;;;;2.90;0.85;;;20.70;99.90;;;;;;6242899;23;20024;-72
2023/07/20 09:40:26;;;;;;;1.58;0.80;;;20.70;99.90;;;;;;6242139;23;20012;-71
2023/07/20 09:43:00;;;;;;;3.92;0.90;;;20.70;99.90;;;;;;6214759;23;20031;-71
2023/07/20 09:45:42;;;;;;;1.75;0.60;;;20.80;99.90;;;;;;6242251;23;20540;-72
2023/07/20 09:48:09;;;;;;;3.33;1.05;;;21.00;99.90;;;;;;6242228;23;20372;-71
2023/07/20 09:50:41;;;;;;;3.05;0.80;;;21.20;99.90;;;;;;6242017;23;20019;-71
2023/07/20 09:53:11;;;;;;;1.98;0.68;;;21.20;99.90;;;;;;6242226;23;20020;-71
2023/07/20 09:55:38;;;;;;;2.28;0.60;;;21.20;99.90;;;;;;6241562;23;20445;-71
2023/07/20 09:58:06;;;;;;;1.25;0.60;;;21.20;99.90;;;;;;6241914;23;20487;-71
2023/07/20 10:00:35;;;;;;;1.88;0.73;;;21.30;99.90;;;;;;6189839;23;20020;-71
2023/07/20 10:03:03;;;;;;;3.78;0.77;;;21.30;99.90;;;;;;6214847;23;20016;-71
2023/07/20 10:05:36;;;;;;;3.75;0.95;;;21.40;99.90;;;;;;6241349;23;20028;-71
2023/07/20 10:08:05;;;;;;;2.90;1.10;;;21.30;99.90;;;;;;6241970;23;20020;-71
2023/07/20 10:10:33;;;;;;;2.03;0.80;;;21.20;99.90;;;;;;6214620;23;20078;-71
2023/07/20 10:13:00;;;;;;;3.08;0.63;;;21.20;99.90;;;;;;6241709;23;20024;-71
2023/07/20 10:15:40;;;;;;;2.25;0.75;;;21.10;99.90;;;;;;6241786;23;20038;-71
2023/07/20 10:18:14;;;;;;;2.45;0.70;;;21.10;99.90;;;;;;6241837;23;20020;-72
2023/07/20 10:20:41;;;;;;;2.22;0.82;;;21.10;99.90;;;;;;6241231;23;20023;-71
2023/07/20 10:23:07;;;;;;;2.17;0.98;;;21.10;99.90;;;;;;6214810;23;20459;-71
2023/07/20 10:25:37;;;;;;;1.90;0.73;;;21.00;99.90;;;;;;6241490;23;20054;-72
2023/07/20 10:28:05;;;;;;;0.85;0.65;;;21.00;99.90;;;;;;6241456;23;20024;-71
2023/07/20 10:30:31;;;;;;;1.75;0.73;;;21.00;99.90;;;;;;6241470;23;20051;-72
2023/07/20 10:32:57;;;;;;;2.17;0.93;;;20.90;99.90;;;;;;6214155;23;20024;-72
2023/07/20 10:35:23;;;;;;;2.65;0.90;;;20.90;99.90;;;;;;6214431;23;20030;-71
2023/07/20 10:37:54;;;;;;;3.35;0.88;;;20.80;99.90;;;;;;6242086;23;20031;-71
2023/07/20 10:40:34;;;;;;;2.83;0.80;;;20.70;99.90;;;;;;6241957;23;20325;-72
2023/07/20 10:43:03;;;;;;;1.92;0.82;;;20.70;99.90;;;;;;6241938;23;20521;-73
2023/07/20 10:45:52;;;;;;;2.92;0.90;;;20.60;99.90;;;;;;6214409;23;20020;-71
2023/07/20 10:48:22;;;;;;;3.40;1.10;;;20.50;99.90;;;;;;6241279;23;20016;-71
2023/07/20 10:51:11;;;;;;;2.65;0.85;;;20.40;99.90;;;;;;6214497;23;20024;-72
2023/07/20 10:53:37;;;;;;;3.30;1.10;;;20.40;99.90;;;;;;6241826;23;20016;-71
2023/07/20 10:56:13;;;;;;;1.58;0.70;;;20.40;99.90;;;;;;6240926;23;20064;-72
2023/07/20 10:58:40;;;;;;;2.30;0.80;;;20.40;99.90;;;;;;6241592;23;20023;-72
2023/07/20 11:01:06;;;;;;;2.30;0.70;;;20.50;99.90;;;;;;6214348;23;20020;-72
2023/07/20 11:03:42;;;;;;;1.67;0.90;;;20.50;99.90;;;;;;6241035;23;20024;-71
2023/07/20 11:06:26;;;;;;;0.98;0.70;;;20.50;99.90;;;;;;6214303;23;20129;-71
2023/07/20 11:09:11;;;;;;;0.80;0.70;;;20.50;99.90;;;;;;6214230;23;20016;-72
2023/07/20 11:11:44;;;;;;;3.13;0.77;;;20.40;99.90;;;;;;6212787;23;20080;-72
2023/07/20 11:14:23;;;;;;;1.90;0.85;;;20.40;99.90;;;;;;6213278;23;20129;-72
2023/07/20 11:16:51;;;;;;;3.50;0.93;;;20.30;99.90;;;;;;6213581;23;20694;-72
2023/07/20 11:19:24;;;;;;;1.00;0.70;;;20.30;99.90;;;;;;6213466;23;20468;-72
2023/07/20 11:21:57;;;;;;;3.90;0.90;;;20.30;99.90;;;;;;6213802;23;20027;-72
2023/07/20 11:24:23;;;;;;;1.00;0.80;;;20.30;99.90;;;;;;6214407;23;20031;-72
2023/07/20 11:26:54;;;;;;;1.75;0.80;;;20.20;99.90;;;;;;6241010;23;20095;-72
2023/07/20 11:29:22;;;;;;;0.80;0.80;;;20.30;99.90;;;;;;6241081;23;20059;-71
2023/07/20 11:31:49;;;;;;;1.25;0.80;;;20.30;99.90;;;;;;6213981;23;20188;-72
2023/07/20 11:34:17;;;;;;;1.75;0.73;;;20.30;99.90;;;;;;6241146;23;20475;-71
2023/07/20 11:36:45;;;;;;;1.00;0.80;;;20.40;99.90;;;;;;6241127;23;20027;-72
2023/07/20 11:39:15;;;;;;;2.25;0.80;;;20.50;99.90;;;;;;6214225;23;20020;-71
2023/07/20 11:42:00;;;;;;;2.22;1.05;;;20.60;99.90;;;;;;6240679;23;20476;-71
2023/07/20 11:44:28;;;;;;;2.30;1.00;;;20.60;99.90;;;;;;6214178;23;20066;-72
2023/07/20 11:47:04;;;;;;;1.48;1.15;;;20.60;99.90;;;;;;6241069;23;20808;-72
2023/07/20 11:49:34;;;;;;;4.70;1.05;;;20.70;99.90;;;;;;6213538;23;20102;-72
2023/07/20 11:52:00;;;;;;;1.52;1.00;;;20.70;99.90;;;;;;6241035;23;20016;-72
2023/07/20 11:54:27;;;;;;;1.73;0.73;;;20.70;99.90;;;;;;6240780;23;20016;-72
2023/07/20 11:56:56;;;;;;;1.08;0.90;;;20.70;99.90;;;;;;6241373;23;20031;-72
2023/07/20 11:59:22;;;;;;;1.45;1.20;;;20.90;99.90;;;;;;6213767;23;20020;-74
2023/07/20 12:01:47;;;;;;;4.13;1.60;;;20.90;99.90;;;;;;6213593;23;20099;-71
2023/07/20 12:04:13;;;;;;;1.60;1.00;;;21.00;99.90;;;;;;6214192;23;20055;-72
2023/07/20 12:06:39;;;;;;;1.30;0.70;;;21.10;99.90;;;;;;6242976;23;20020;-71
2023/07/20 12:09:05;;;;;;;2.90;1.08;;;21.10;99.90;;;;;;6243071;23;20055;-71
2023/07/20 12:11:38;;;;;;;2.83;1.05;;;21.20;99.90;;;;;;6216002;23;20020;-72
2023/07/20 12:14:08;;;;;;;2.03;0.90;;;21.20;99.90;;;;;;6243167;23;20020;-71
2023/07/20 12:16:37;;;;;;;2.17;1.05;;;21.20;99.90;;;;;;6243511;23;20016;-71
2023/07/20 12:19:07;;;;;;;1.98;0.90;;;21.00;99.90;;;;;;6243269;23;20024;-71
2023/07/20 12:21:36;;;;;;;3.85;1.30;;;21.10;99.90;;;;;;6243698;23;20017;-71
2023/07/20 12:24:03;;;;;;;1.63;0.88;;;21.10;99.90;;;;;;6243362;23;20063;-72
2023/07/20 12:26:33;;;;;;;6.38;0.70;;;21.30;99.90;;;;;;6216163;23;20027;-71
2023/07/20 12:29:00;;;;;;;1.35;0.70;;;21.20;99.90;;;;;;6243048;23;20058;-71
2023/07/20 12:31:27;;;;;;;2.65;1.00;;;21.20;99.90;;;;;;6215758;23;20020;-71
2023/07/20 12:33:55;;;;;;;0.70;0.70;;;21.20;99.90;;;;;;6216463;23;20016;-71
2023/07/20 12:36:21;;;;;;;1.98;0.80;;;21.10;99.90;;;;;;6243652;23;20058;-71
2023/07/20 12:38:47;;;;;;;3.80;0.90;;;21.20;99.90;;;;;;6215819;23;20047;-72
2023/07/20 12:41:16;;;;;;;1.45;0.77;;;21.20;99.90;;;;;;6215622;23;20344;-71
2023/07/20 12:43:43;;;;;;;5.35;0.95;;;21.40;99.90;;;;;;6215910;23;20399;-71
2023/07/20 12:46:09;;;;;;;2.35;0.80;;;21.50;99.90;;;;;;6242721;23;20402;-71
2023/07/20 12:48:40;;;;;;;1.80;0.95;;;21.50;99.90;;;;;;6243104;23;20016;-71